This is the latest recevied weather packets stored in our database for station/object IU1INZ-13. If no packets are shown the sender has not sent any weather packets the latest 1 day(s).
| Time | Temp. | Humidity | Pressure | Rain* | Wind** | Luminosity | Snow |
|---|---|---|---|---|---|---|---|
| 1778094932 | 15° C | 78% | 1009.6 hPa | 0 mm | - | - | - |
| 1778089530 | 16.11° C | 75% | 1007.8 hPa | 0 mm | - | - | - |
| 1778088639 | 16.67° C | 72% | 1007.7 hPa | 0 mm | - | - | - |
| 1778085030 | 18.33° C | 62% | 1006.8 hPa | 0 mm | - | - | - |
| 1778076030 | 18.89° C | 65% | 1007.2 hPa | 0 mm | - | - | - |
| 1778071538 | 19.44° C | 61% | 1007.4 hPa | 0 mm | - | - | - |
| 1778069729 | 18.89° C | 64% | 1007.3 hPa | 0 mm | - | - | - |
| 1778068855 | 18.33° C | 63% | 1007.3 hPa | 0 mm | - | - | - |
| 1778067032 | 17.78° C | 69% | 1007.5 hPa | 0 mm | - | - | - |
| 1778065234 | 17.22° C | 67% | 1007.6 hPa | 0 mm | - | - | - |
| 1778061633 | 13.89° C | 84% | 1007.7 hPa | 0 mm | - | - | - |
| 1778060736 | 12.22° C | 88% | 1007.8 hPa | 0.76 mm | - | - | - |
| 1778059844 | 12.22° C | 91% | 1008.1 hPa | 2.79 mm | - | - | - |
| 1778058933 | 11.11° C | 92% | 1008.2 hPa | 5.59 mm | - | - | - |
| 1778058033 | 11.11° C | 91% | 1008.4 hPa | 5.59 mm | - | - | - |
| 1778057133 | 10.56° C | 91% | 1008.5 hPa | 4.57 mm | - | - | - |
| 1778055334 | 10.56° C | 91% | 1008.5 hPa | 1.78 mm | - | - | - |
| 1778053534 | 10.56° C | 92% | 1008.4 hPa | 1.78 mm | - | - | - |
| 1778052629 | 10.56° C | 92% | 1008.4 hPa | 2.29 mm | - | - | - |
| 1778050837 | 11.67° C | 93% | 1008.3 hPa | 3.56 mm | - | - | - |
| 1778047243 | 11.67° C | 93% | 1008.6 hPa | 5.33 mm | - | - | - |
| 1778046342 | 11.67° C | 93% | 1008.7 hPa | 3.56 mm | - | - | - |
| 1778045445 | 11.67° C | 93% | 1008.8 hPa | 2.79 mm | - | - | - |
| 1778043633 | 11.67° C | 93% | 1008.9 hPa | 1.27 mm | - | - | - |
| 1778042737 | 11.67° C | 93% | 1009 hPa | 1.02 mm | - | - | - |
* Rain latest hour (hover to see other rain measurements)
** Current wind speed in m/s (hover to see current wind gust speed)